Time;durP1;ratioP1;P1;durP2;ratioP2;P2;SDS_P1;SDS_P2;PMS_P1;PMS_P2;Temp;Humidity;BMP_temperature;BMP_pressure;BME280_temperature;BME280_humidity;BME280_pressure;Samples;Min_cycle;Max_cycle;Signal;HPM_P1;HPM_P2
2021/07/23 00:01:38;;;;;;;7.47;5.82;;;24.80;56.30;;;;;;5074693;28;20032;-45
2021/07/23 00:04:04;;;;;;;8.38;6.20;;;24.80;56.40;;;;;;5073989;28;20107;-62
2021/07/23 00:06:29;;;;;;;8.85;6.40;;;24.80;56.30;;;;;;5074367;28;20158;-45
2021/07/23 00:08:55;;;;;;;7.38;6.50;;;24.80;56.30;;;;;;5075027;28;20123;-45
2021/07/23 00:11:21;;;;;;;9.40;6.25;;;24.80;56.30;;;;;;5073380;28;20832;-46
2021/07/23 00:13:47;;;;;;;7.70;6.07;;;24.80;56.30;;;;;;5074798;28;20024;-45
2021/07/23 00:16:14;;;;;;;8.18;6.22;;;24.80;56.30;;;;;;5074002;28;20020;-46
2021/07/23 00:18:39;;;;;;;8.30;6.65;;;24.70;56.30;;;;;;5074367;28;20040;-45
2021/07/23 00:21:05;;;;;;;9.27;6.43;;;24.80;56.30;;;;;;5073810;28;20036;-61
2021/07/23 00:23:30;;;;;;;7.85;5.78;;;24.80;56.40;;;;;;5074660;28;20033;-46
2021/07/23 00:25:56;;;;;;;8.80;6.00;;;24.80;56.40;;;;;;5074054;28;20386;-45
2021/07/23 00:28:22;;;;;;;7.45;5.38;;;24.80;56.30;;;;;;5073647;28;20093;-45
2021/07/23 00:30:47;;;;;;;6.57;5.53;;;24.70;56.30;;;;;;5074038;28;20087;-49
2021/07/23 00:33:13;;;;;;;8.90;6.55;;;24.80;56.30;;;;;;5073132;28;20031;-45
2021/07/23 00:35:38;;;;;;;8.38;6.30;;;24.80;56.40;;;;;;5074197;28;20028;-45
2021/07/23 00:38:05;;;;;;;8.48;6.13;;;24.80;56.40;;;;;;5073729;28;20055;-60
2021/07/23 00:40:33;;;;;;;6.80;5.30;;;24.80;56.40;;;;;;5074015;28;20032;-45
2021/07/23 00:42:58;;;;;;;8.07;5.97;;;24.80;56.50;;;;;;5073911;28;20087;-45
2021/07/23 00:45:24;;;;;;;8.05;5.90;;;24.70;56.50;;;;;;5071984;28;20634;-45
2021/07/23 00:47:54;;;;;;;7.75;5.55;;;24.70;56.40;;;;;;5074187;28;20073;-46
2021/07/23 00:50:20;;;;;;;7.65;5.50;;;24.80;56.40;;;;;;5073377;28;20103;-45
2021/07/23 00:52:46;;;;;;;8.57;6.20;;;24.70;56.40;;;;;;5073695;28;20048;-46
2021/07/23 00:55:13;;;;;;;8.05;6.25;;;24.80;56.40;;;;;;5073027;28;20041;-45
2021/07/23 00:57:41;;;;;;;7.00;5.68;;;24.70;56.40;;;;;;5074033;28;20028;-46
2021/07/23 01:00:07;;;;;;;6.85;5.70;;;24.70;56.40;;;;;;5064873;28;20477;-64
2021/07/23 01:02:33;;;;;;;7.82;5.95;;;24.80;56.40;;;;;;5073586;28;20377;-45
2021/07/23 01:04:59;;;;;;;9.50;6.22;;;24.80;56.40;;;;;;5073415;28;20466;-45
2021/07/23 01:07:24;;;;;;;8.70;6.35;;;24.80;56.50;;;;;;5072558;28;20120;-47
2021/07/23 01:09:50;;;;;;;7.28;5.60;;;24.80;56.40;;;;;;5073562;28;20393;-45
2021/07/23 01:12:17;;;;;;;7.53;5.95;;;24.80;56.40;;;;;;5072233;28;20039;-45
2021/07/23 01:14:43;;;;;;;8.07;6.32;;;24.80;56.40;;;;;;5073235;28;20029;-46
2021/07/23 01:17:08;;;;;;;7.55;5.32;;;24.70;56.30;;;;;;5054550;28;20035;-54
2021/07/23 01:19:41;;;;;;;8.88;6.68;;;24.80;56.40;;;;;;5072606;28;20021;-46
2021/07/23 01:22:08;;;;;;;8.75;5.72;;;24.80;56.40;;;;;;5072671;28;20075;-64
2021/07/23 01:24:36;;;;;;;7.53;5.70;;;24.70;56.30;;;;;;5073381;28;20085;-45
2021/07/23 01:27:02;;;;;;;8.32;5.88;;;24.80;56.40;;;;;;5073294;28;20063;-46
2021/07/23 01:29:27;;;;;;;8.27;6.25;;;24.70;56.30;;;;;;5072311;28;20044;-46
2021/07/23 01:31:53;;;;;;;6.63;5.38;;;24.80;56.40;;;;;;5072797;28;20107;-45
2021/07/23 01:34:19;;;;;;;7.43;5.63;;;24.70;56.40;;;;;;5072225;28;20432;-45
2021/07/23 01:36:44;;;;;;;7.40;6.00;;;24.80;56.40;;;;;;5073083;28;20036;-46
2021/07/23 01:39:12;;;;;;;9.43;6.38;;;24.80;56.40;;;;;;5072355;28;20120;-46
2021/07/23 01:41:38;;;;;;;8.65;6.45;;;24.70;56.40;;;;;;5072706;28;20123;-47
2021/07/23 01:44:05;;;;;;;7.70;6.07;;;24.70;56.30;;;;;;5072790;28;20461;-45
2021/07/23 01:46:31;;;;;;;7.35;5.32;;;24.70;56.40;;;;;;5072507;28;20028;-45
2021/07/23 01:48:56;;;;;;;7.00;5.72;;;24.70;56.40;;;;;;5072514;28;20112;-45
2021/07/23 01:51:23;;;;;;;7.25;5.80;;;24.70;56.50;;;;;;5071415;28;20104;-46
2021/07/23 01:53:49;;;;;;;6.88;5.45;;;24.70;56.40;;;;;;5072877;28;20032;-45
2021/07/23 01:56:15;;;;;;;7.28;5.43;;;24.80;56.50;;;;;;5072094;28;20035;-46
2021/07/23 01:58:41;;;;;;;6.28;5.63;;;24.70;56.40;;;;;;5072709;28;20035;-45
2021/07/23 02:01:06;;;;;;;7.40;5.40;;;24.80;56.50;;;;;;5064074;28;20052;-63
2021/07/23 02:03:32;;;;;;;6.60;5.82;;;24.80;56.50;;;;;;5072409;28;20477;-45
2021/07/23 02:05:57;;;;;;;7.18;5.10;;;24.70;56.50;;;;;;5072321;28;20028;-45
2021/07/23 02:08:23;;;;;;;8.02;5.70;;;24.70;56.40;;;;;;5071044;28;20166;-45
2021/07/23 02:10:49;;;;;;;8.35;5.68;;;24.70;56.50;;;;;;5056075;28;20044;-45
2021/07/23 02:13:14;;;;;;;16.17;6.22;;;24.70;56.50;;;;;;5054040;28;20631;-45
2021/07/23 02:15:41;;;;;;;6.82;5.53;;;24.70;56.50;;;;;;5072368;28;20040;-48
2021/07/23 02:18:07;;;;;;;7.50;5.82;;;24.70;56.40;;;;;;5071986;28;20078;-62
2021/07/23 02:20:33;;;;;;;7.47;5.78;;;24.70;56.40;;;;;;5071825;28;20028;-45
2021/07/23 02:22:58;;;;;;;6.38;5.22;;;24.70;56.40;;;;;;5071856;28;20477;-48
2021/07/23 02:25:24;;;;;;;7.10;5.53;;;24.70;56.50;;;;;;5071391;28;20390;-49
2021/07/23 02:27:50;;;;;;;7.47;5.78;;;24.70;56.50;;;;;;5071895;28;20492;-47
2021/07/23 02:30:15;;;;;;;7.18;5.68;;;24.70;56.40;;;;;;5071048;28;20028;-49
2021/07/23 02:32:41;;;;;;;8.57;6.07;;;24.70;56.50;;;;;;5072307;28;20067;-46
2021/07/23 02:35:08;;;;;;;7.88;5.60;;;24.70;56.40;;;;;;5071947;28;20028;-61
2021/07/23 02:37:34;;;;;;;6.97;5.72;;;24.80;56.50;;;;;;5053731;28;20028;-45
2021/07/23 02:40:00;;;;;;;6.85;5.47;;;24.70;56.40;;;;;;5071976;28;20461;-45
2021/07/23 02:42:25;;;;;;;7.40;5.43;;;24.70;56.40;;;;;;5070305;28;20040;-46
2021/07/23 02:44:51;;;;;;;8.45;6.00;;;24.70;56.40;;;;;;5071949;28;20028;-45
2021/07/23 02:47:17;;;;;;;7.10;5.43;;;24.70;56.40;;;;;;5071031;28;20035;-45
2021/07/23 02:49:42;;;;;;;6.60;5.63;;;24.70;56.40;;;;;;5071748;28;20040;-45
2021/07/23 02:52:08;;;;;;;7.60;6.10;;;24.70;56.40;;;;;;5071433;28;20059;-63
2021/07/23 02:54:33;;;;;;;6.45;5.45;;;24.70;56.40;;;;;;5070769;28;20028;-45
2021/07/23 02:56:59;;;;;;;8.43;5.32;;;24.70;56.40;;;;;;5071182;28;20028;-45
2021/07/23 02:59:24;;;;;;;6.80;5.22;;;24.70;56.30;;;;;;5070520;28;20029;-45
2021/07/23 03:01:50;;;;;;;7.80;5.57;;;24.70;56.30;;;;;;5071493;28;20036;-47
2021/07/23 03:04:16;;;;;;;7.43;5.72;;;24.70;56.40;;;;;;5062424;28;20099;-46
2021/07/23 03:06:41;;;;;;;7.93;5.65;;;24.70;56.40;;;;;;5071647;28;20032;-47
2021/07/23 03:09:07;;;;;;;7.70;5.78;;;24.70;56.40;;;;;;5070437;28;20036;-46
2021/07/23 03:11:33;;;;;;;6.90;5.35;;;24.70;56.40;;;;;;5070792;28;20028;-46
2021/07/23 03:13:58;;;;;;;6.60;5.38;;;24.70;56.40;;;;;;5071303;28;20056;-45
2021/07/23 03:16:24;;;;;;;7.53;5.57;;;24.70;56.50;;;;;;5070510;28;20394;-46
2021/07/23 03:18:50;;;;;;;7.68;5.68;;;24.70;56.40;;;;;;5071270;28;20028;-46
2021/07/23 03:21:20;;;;;;;5.97;5.00;;;24.70;56.40;;;;;;5070613;28;20040;-46
2021/07/23 03:23:46;;;;;;;6.78;5.30;;;24.70;56.40;;;;;;5071288;28;20028;-45
2021/07/23 03:26:11;;;;;;;8.00;5.85;;;24.70;56.50;;;;;;5070489;28;20028;-63
2021/07/23 03:28:37;;;;;;;6.95;5.85;;;24.70;56.50;;;;;;5071372;28;20363;-45
2021/07/23 03:31:02;;;;;;;6.50;5.70;;;24.70;56.50;;;;;;5070859;28;20112;-50
2021/07/23 03:33:28;;;;;;;8.60;5.78;;;24.70;56.50;;;;;;5070346;28;20119;-46
2021/07/23 03:35:54;;;;;;;8.10;5.50;;;24.70;56.50;;;;;;5071318;28;20025;-45
2021/07/23 03:38:19;;;;;;;8.13;5.93;;;24.70;56.50;;;;;;5069753;28;20132;-45
2021/07/23 03:40:45;;;;;;;7.70;5.60;;;24.70;56.50;;;;;;5071235;28;20035;-46
2021/07/23 03:43:11;;;;;;;7.57;4.97;;;24.70;56.50;;;;;;5070898;28;20044;-61
2021/07/23 03:45:36;;;;;;;7.03;5.13;;;24.70;56.50;;;;;;5070775;28;20028;-46
2021/07/23 03:48:02;;;;;;;7.97;5.38;;;24.70;56.50;;;;;;5071290;28;20064;-45
2021/07/23 03:50:27;;;;;;;8.25;5.60;;;24.70;56.40;;;;;;5070635;28;20495;-45
2021/07/23 03:52:54;;;;;;;6.15;5.15;;;24.70;56.50;;;;;;5070933;28;20037;-46
2021/07/23 03:55:20;;;;;;;8.00;5.38;;;24.70;56.50;;;;;;5070371;28;20461;-45
2021/07/23 03:57:45;;;;;;;8.70;6.28;;;24.70;56.50;;;;;;5070996;28;20029;-49
2021/07/23 04:00:11;;;;;;;7.80;5.70;;;24.70;56.50;;;;;;5062227;28;20048;-61
2021/07/23 04:02:37;;;;;;;7.40;5.47;;;24.70;56.50;;;;;;5070515;28;20033;-45
2021/07/23 04:05:04;;;;;;;6.35;5.43;;;24.70;56.50;;;;;;5071412;28;20031;-45
2021/07/23 04:07:33;;;;;;;6.68;5.32;;;24.70;56.50;;;;;;5070166;28;20024;-45
2021/07/23 04:10:00;;;;;;;7.13;5.22;;;24.70;56.50;;;;;;5070828;28;20028;-45
2021/07/23 04:12:26;;;;;;;7.00;5.10;;;24.70;56.50;;;;;;5069784;28;20120;-45
2021/07/23 04:14:52;;;;;;;7.25;5.45;;;24.70;56.50;;;;;;5070923;28;20444;-45
2021/07/23 04:17:18;;;;;;;7.30;5.35;;;24.70;56.50;;;;;;5069767;28;20078;-45
2021/07/23 04:19:43;;;;;;;6.78;5.18;;;24.70;56.50;;;;;;5071486;28;20021;-45
2021/07/23 04:22:09;;;;;;;7.38;5.57;;;24.70;56.40;;;;;;5074284;28;20062;-45
2021/07/23 04:24:36;;;;;;;8.10;5.88;;;24.70;56.40;;;;;;5073504;28;20090;-46
2021/07/23 04:27:01;;;;;;;8.50;5.47;;;24.70;56.50;;;;;;5074435;28;20020;-46
2021/07/23 04:29:27;;;;;;;7.18;5.60;;;24.70;56.40;;;;;;5073435;28;20021;-45
2021/07/23 04:31:53;;;;;;;7.47;5.38;;;24.70;56.50;;;;;;5074298;28;20115;-45
2021/07/23 04:34:18;;;;;;;7.10;5.03;;;24.70;56.40;;;;;;5073629;28;20024;-45
2021/07/23 04:36:44;;;;;;;7.25;5.35;;;24.70;56.50;;;;;;5074020;28;20366;-45
2021/07/23 04:39:09;;;;;;;7.20;5.32;;;24.60;56.40;;;;;;5074242;28;20025;-45
2021/07/23 04:41:35;;;;;;;6.85;5.20;;;24.70;56.50;;;;;;5072896;28;20048;-45
2021/07/23 04:44:01;;;;;;;6.40;5.10;;;24.70;56.50;;;;;;5073678;28;20040;-47
2021/07/23 04:46:26;;;;;;;7.05;5.05;;;24.70;56.60;;;;;;5064711;28;20029;-46
2021/07/23 04:48:52;;;;;;;7.18;5.25;;;24.70;56.50;;;;;;5073565;28;20028;-45
2021/07/23 04:51:18;;;;;;;7.47;5.38;;;24.70;56.50;;;;;;5073204;28;20146;-45
2021/07/23 04:53:43;;;;;;;6.60;5.10;;;24.60;56.30;;;;;;5073395;28;20392;-50
2021/07/23 04:56:09;;;;;;;7.10;5.47;;;24.60;56.20;;;;;;5073719;28;20491;-45
2021/07/23 04:58:34;;;;;;;6.82;5.30;;;24.70;56.30;;;;;;5073029;28;20383;-45
2021/07/23 05:01:00;;;;;;;7.85;5.80;;;24.70;56.10;;;;;;5073338;28;20083;-45
2021/07/23 05:03:37;;;;;;;7.43;5.32;;;24.70;56.00;;;;;;5072993;28;20038;-45
2021/07/23 05:06:08;;;;;;;9.50;6.03;;;24.70;56.00;;;;;;5073587;28;20494;-45
2021/07/23 05:08:34;;;;;;;7.83;5.77;;;24.70;55.90;;;;;;5072522;28;20584;-45
2021/07/23 05:11:01;;;;;;;7.32;5.70;;;24.70;56.00;;;;;;5073690;28;20037;-45
2021/07/23 05:13:28;;;;;;;8.45;5.60;;;24.70;56.00;;;;;;5072620;28;20052;-45
2021/07/23 05:15:54;;;;;;;8.75;5.75;;;24.70;56.00;;;;;;5073697;28;20029;-46
2021/07/23 05:18:20;;;;;;;8.95;6.03;;;24.70;56.10;;;;;;5072628;28;20032;-44
2021/07/23 05:20:45;;;;;;;7.45;6.28;;;24.70;56.20;;;;;;5072552;28;20641;-46
2021/07/23 05:23:12;;;;;;;9.43;6.00;;;24.70;56.20;;;;;;5073356;28;20028;-45
2021/07/23 05:25:38;;;;;;;9.95;5.85;;;24.70;56.20;;;;;;5063966;28;20037;-59
2021/07/23 05:28:04;;;;;;;8.85;6.13;;;24.70;56.30;;;;;;5053699;28;20458;-45
2021/07/23 05:30:30;;;;;;;8.02;5.88;;;24.70;56.30;;;;;;5052729;28;20029;-46
2021/07/23 05:32:55;;;;;;;11.98;6.55;;;24.80;56.50;;;;;;5069614;28;20093;-46
2021/07/23 05:35:21;;;;;;;8.85;6.15;;;24.80;56.70;;;;;;5071820;28;20488;-47
2021/07/23 05:37:46;;;;;;;8.02;5.97;;;24.80;56.90;;;;;;5072187;28;20032;-45
2021/07/23 05:40:13;;;;;;;8.68;5.45;;;24.80;56.90;;;;;;5072689;28;20052;-46
2021/07/23 05:42:39;;;;;;;12.07;6.30;;;24.70;56.90;;;;;;5071978;28;20036;-51
2021/07/23 05:45:05;;;;;;;7.47;5.18;;;24.70;56.90;;;;;;5073001;28;20029;-45
2021/07/23 05:47:31;;;;;;;7.88;6.18;;;24.70;57.00;;;;;;5071889;28;20500;-45
2021/07/23 05:49:56;;;;;;;14.60;6.15;;;24.70;57.00;;;;;;5072748;28;20060;-46
2021/07/23 05:52:22;;;;;;;8.98;6.03;;;24.70;57.10;;;;;;5071917;28;20081;-45
2021/07/23 05:54:47;;;;;;;8.00;5.78;;;24.70;57.10;;;;;;5072748;28;20086;-49
2021/07/23 05:57:13;;;;;;;12.18;6.53;;;24.70;57.10;;;;;;5072466;28;20044;-45
2021/07/23 05:59:39;;;;;;;8.40;6.28;;;24.70;57.10;;;;;;5071550;28;20456;-45
2021/07/23 06:02:04;;;;;;;9.90;6.22;;;24.70;57.10;;;;;;5072600;28;20044;-45
2021/07/23 06:04:30;;;;;;;7.40;6.03;;;24.70;57.10;;;;;;5071791;28;20067;-46
2021/07/23 06:06:56;;;;;;;9.30;6.28;;;24.70;57.10;;;;;;5071953;28;20456;-45
2021/07/23 06:09:21;;;;;;;7.28;5.60;;;24.70;57.10;;;;;;5071399;28;20090;-45
2021/07/23 06:11:47;;;;;;;9.75;6.05;;;24.70;57.00;;;;;;5054501;28;20060;-45
2021/07/23 06:14:12;;;;;;;8.93;6.15;;;24.70;57.10;;;;;;5072500;28;20020;-51
2021/07/23 06:16:42;;;;;;;9.05;5.72;;;24.70;57.10;;;;;;5071567;28;20028;-45
2021/07/23 06:19:07;;;;;;;13.38;6.70;;;24.70;57.10;;;;;;5072313;28;20024;-45
2021/07/23 06:21:33;;;;;;;11.52;6.55;;;24.70;57.10;;;;;;5071458;28;20028;-45
2021/07/23 06:23:59;;;;;;;8.88;6.10;;;24.70;57.10;;;;;;5072360;28;20036;-45
2021/07/23 06:26:25;;;;;;;8.90;6.43;;;24.70;57.10;;;;;;5071192;28;20027;-45
2021/07/23 06:28:50;;;;;;;11.23;6.43;;;24.70;57.00;;;;;;5071895;28;20031;-46
2021/07/23 06:31:16;;;;;;;8.43;6.10;;;24.70;57.00;;;;;;5071547;28;20031;-61
2021/07/23 06:33:42;;;;;;;9.70;5.85;;;24.70;57.10;;;;;;5068922;28;20489;-45
2021/07/23 06:36:07;;;;;;;8.05;6.15;;;24.70;57.10;;;;;;5072053;28;20039;-46
2021/07/23 06:38:33;;;;;;;10.40;7.47;;;24.70;57.10;;;;;;5071092;28;20428;-45
2021/07/23 06:40:59;;;;;;;8.93;6.82;;;24.70;57.20;;;;;;5071922;28;20036;-45
2021/07/23 06:43:26;;;;;;;11.25;6.50;;;24.70;57.10;;;;;;5070055;28;20055;-45
2021/07/23 06:45:56;;;;;;;10.63;6.15;;;24.70;57.10;;;;;;5071692;28;20109;-46
2021/07/23 06:48:22;;;;;;;9.73;6.43;;;24.70;57.10;;;;;;5071417;28;20485;-46
2021/07/23 06:50:50;;;;;;;10.23;6.32;;;24.70;57.10;;;;;;5071798;28;20036;-47
2021/07/23 06:53:19;;;;;;;8.30;6.00;;;24.70;57.10;;;;;;5071192;28;20043;-61
2021/07/23 06:55:45;;;;;;;9.00;6.50;;;24.70;57.10;;;;;;5071989;28;20044;-46
2021/07/23 06:58:11;;;;;;;9.50;5.93;;;24.70;57.10;;;;;;5071352;28;20029;-45
2021/07/23 07:00:37;;;;;;;9.48;6.22;;;24.70;57.10;;;;;;5070709;28;20230;-47
2021/07/23 07:03:06;;;;;;;8.95;6.40;;;24.70;57.10;;;;;;5071653;28;20044;-46
2021/07/23 07:05:32;;;;;;;7.57;5.97;;;24.70;57.10;;;;;;5070292;28;20058;-47
2021/07/23 07:08:02;;;;;;;8.80;6.03;;;24.70;57.20;;;;;;5071713;28;20039;-46
2021/07/23 07:10:28;;;;;;;9.00;6.38;;;24.70;57.10;;;;;;5070435;28;20021;-45
2021/07/23 07:13:00;;;;;;;8.98;6.38;;;24.70;57.10;;;;;;5071498;28;20036;-45
2021/07/23 07:15:26;;;;;;;8.30;5.90;;;24.70;57.20;;;;;;5070550;28;20054;-45
2021/07/23 07:17:59;;;;;;;8.60;6.10;;;24.70;57.20;;;;;;5053711;28;20033;-45
2021/07/23 07:20:25;;;;;;;9.88;6.22;;;24.70;57.20;;;;;;5070935;28;20028;-45
2021/07/23 07:22:52;;;;;;;8.13;6.35;;;24.70;57.20;;;;;;5071762;28;20078;-47
2021/07/23 07:25:17;;;;;;;9.20;6.05;;;24.70;57.20;;;;;;5071046;28;20039;-61
2021/07/23 07:27:43;;;;;;;9.55;6.45;;;24.70;57.10;;;;;;5070887;28;20115;-50
2021/07/23 07:30:09;;;;;;;9.80;7.32;;;24.70;57.20;;;;;;5063302;28;20025;-46
2021/07/23 07:32:34;;;;;;;9.50;6.88;;;24.70;57.20;;;;;;5070742;28;20381;-45
2021/07/23 07:35:00;;;;;;;9.75;6.47;;;24.70;57.20;;;;;;5070920;28;20093;-46
2021/07/23 07:37:25;;;;;;;9.50;6.35;;;24.70;57.20;;;;;;5070459;28;20041;-45
2021/07/23 07:39:51;;;;;;;12.13;7.07;;;24.70;57.20;;;;;;5071245;28;20027;-45
2021/07/23 07:42:17;;;;;;;11.27;7.13;;;24.70;57.20;;;;;;5070787;28;20040;-61
2021/07/23 07:44:44;;;;;;;8.23;6.18;;;24.70;57.20;;;;;;5070743;28;20381;-45
2021/07/23 07:47:10;;;;;;;7.45;5.85;;;24.70;57.20;;;;;;5071207;28;20028;-46
2021/07/23 07:49:35;;;;;;;8.02;6.30;;;24.70;57.20;;;;;;5070197;28;20047;-45
2021/07/23 07:52:01;;;;;;;8.75;6.32;;;24.70;57.20;;;;;;5071277;28;20052;-46
2021/07/23 07:54:27;;;;;;;8.63;6.22;;;24.70;57.20;;;;;;5070282;28;20389;-46
2021/07/23 07:56:54;;;;;;;9.93;6.85;;;24.70;57.20;;;;;;5074702;28;20056;-46
2021/07/23 07:59:20;;;;;;;8.95;6.07;;;24.70;57.20;;;;;;5074152;28;20021;-61
2021/07/23 08:01:45;;;;;;;9.52;6.63;;;24.80;57.30;;;;;;5074806;28;20082;-46
2021/07/23 08:04:12;;;;;;;8.32;5.90;;;24.70;57.30;;;;;;5074706;28;20037;-46
2021/07/23 08:06:40;;;;;;;7.63;5.80;;;24.80;57.30;;;;;;5073924;28;20028;-45
2021/07/23 08:09:08;;;;;;;8.73;6.45;;;24.80;57.40;;;;;;5074207;28;20033;-46
2021/07/23 08:11:35;;;;;;;10.25;6.00;;;24.70;57.30;;;;;;5073909;28;20036;-47
2021/07/23 08:14:01;;;;;;;9.60;6.72;;;24.80;57.40;;;;;;5074608;28;20428;-46
2021/07/23 08:16:27;;;;;;;9.57;6.38;;;24.80;57.30;;;;;;5073378;28;20032;-45
2021/07/23 08:18:53;;;;;;;8.50;6.13;;;24.80;57.40;;;;;;5074703;28;20458;-46
2021/07/23 08:21:18;;;;;;;9.00;6.30;;;24.70;57.30;;;;;;5074068;28;20036;-61
2021/07/23 08:23:44;;;;;;;8.07;6.15;;;24.80;57.40;;;;;;5073813;28;20113;-46
2021/07/23 08:26:10;;;;;;;8.00;5.97;;;24.70;57.30;;;;;;5074203;28;20595;-46
2021/07/23 08:28:36;;;;;;;8.70;6.15;;;24.80;57.40;;;;;;5072328;28;20029;-45
2021/07/23 08:31:02;;;;;;;8.05;5.90;;;24.80;57.30;;;;;;5058816;28;20112;-45
2021/07/23 08:33:28;;;;;;;8.98;6.40;;;24.80;57.30;;;;;;5072494;28;20107;-45
2021/07/23 08:35:54;;;;;;;8.70;6.20;;;24.80;57.30;;;;;;5074480;28;20035;-45
2021/07/23 08:38:20;;;;;;;8.65;5.97;;;24.80;57.40;;;;;;5073596;28;20024;-61
2021/07/23 08:40:45;;;;;;;9.05;6.57;;;24.80;57.40;;;;;;5073787;28;20098;-46
2021/07/23 08:43:11;;;;;;;8.15;5.65;;;24.80;57.30;;;;;;5073695;28;20462;-47
2021/07/23 08:45:38;;;;;;;9.60;7.13;;;24.70;57.30;;;;;;5072778;28;20035;-45
2021/07/23 08:48:05;;;;;;;9.95;6.43;;;24.80;57.40;;;;;;5073746;28;20068;-45
2021/07/23 08:50:30;;;;;;;8.43;6.55;;;24.80;57.30;;;;;;5070758;28;20029;-47
2021/07/23 08:52:57;;;;;;;9.55;6.50;;;24.80;57.30;;;;;;5074224;28;20040;-46
2021/07/23 08:55:24;;;;;;;8.85;6.43;;;24.80;57.30;;;;;;5073101;28;20091;-61
2021/07/23 08:57:51;;;;;;;9.20;6.20;;;24.80;57.30;;;;;;5073740;28;20386;-48
2021/07/23 09:00:19;;;;;;;10.32;6.70;;;24.80;57.20;;;;;;5073419;28;20486;-45
2021/07/23 09:03:08;;;;;;;10.05;6.93;;;24.80;57.20;;;;;;5072786;28;20040;-46
2021/07/23 09:05:41;;;;;;;8.43;6.20;;;24.80;57.30;;;;;;5072913;28;20124;-46
2021/07/23 09:08:07;;;;;;;8.15;6.18;;;24.80;57.20;;;;;;5072899;28;20525;-46
2021/07/23 09:10:33;;;;;;;8.00;6.28;;;24.80;57.20;;;;;;5072454;28;20025;-46
2021/07/23 09:13:03;;;;;;;11.88;6.65;;;24.80;57.20;;;;;;5073483;28;20044;-46
2021/07/23 09:15:37;;;;;;;8.25;6.00;;;24.80;57.20;;;;;;5072536;28;20025;-53
2021/07/23 09:18:06;;;;;;;9.07;6.35;;;24.80;57.20;;;;;;5073343;28;20032;-45
2021/07/23 09:20:32;;;;;;;9.02;6.05;;;24.80;57.20;;;;;;5072832;28;20370;-46
2021/07/23 09:23:00;;;;;;;9.00;7.10;;;24.80;57.30;;;;;;5073232;28;20048;-45
2021/07/23 09:25:40;;;;;;;8.52;5.90;;;24.80;57.20;;;;;;5072389;28;20063;-45
2021/07/23 09:28:26;;;;;;;7.90;5.75;;;24.80;57.20;;;;;;5073393;28;20096;-45
2021/07/23 09:30:54;;;;;;;8.77;6.32;;;24.80;57.20;;;;;;5065627;28;20474;-46
2021/07/23 09:33:25;;;;;;;8.45;6.40;;;24.80;57.20;;;;;;5073208;28;20021;-45
2021/07/23 09:35:58;;;;;;;7.28;5.65;;;24.80;57.20;;;;;;5073461;28;20040;-45
2021/07/23 09:38:25;;;;;;;8.82;6.47;;;24.80;57.40;;;;;;5063726;28;20040;-61
2021/07/23 09:40:52;;;;;;;8.93;6.55;;;24.80;57.20;;;;;;5073136;28;20044;-45
2021/07/23 09:43:32;;;;;;;8.65;5.90;;;24.80;57.20;;;;;;5072617;28;20545;-45
2021/07/23 09:46:33;;;;;;;10.35;6.90;;;24.80;57.20;;;;;;5072983;28;20029;-45
2021/07/23 09:49:00;;;;;;;8.73;6.38;;;24.80;57.20;;;;;;5055751;28;20111;-45
2021/07/23 09:51:26;;;;;;;8.35;5.88;;;24.80;57.20;;;;;;5072056;28;20031;-58
2021/07/23 09:53:56;;;;;;;7.95;6.07;;;24.80;57.20;;;;;;5072214;28;20036;-46
2021/07/23 09:56:24;;;;;;;8.27;6.03;;;24.80;57.20;;;;;;5072858;28;20025;-59
2021/07/23 09:58:57;;;;;;;9.50;6.40;;;24.80;57.20;;;;;;5072007;28;20036;-45
2021/07/23 10:01:33;;;;;;;8.43;5.78;;;24.80;57.20;;;;;;5072276;28;20482;-59
2021/07/23 10:04:04;;;;;;;7.85;5.78;;;24.80;57.20;;;;;;5072290;28;20474;-45
2021/07/23 10:07:09;;;;;;;7.85;5.60;;;24.80;57.30;;;;;;5071498;28;20089;-45
2021/07/23 10:09:38;;;;;;;8.63;5.97;;;24.80;57.30;;;;;;5071740;28;20111;-45
2021/07/23 10:12:07;;;;;;;9.48;5.63;;;24.80;57.30;;;;;;5072453;28;20028;-45
2021/07/23 10:14:39;;;;;;;7.93;5.78;;;24.80;57.30;;;;;;5071371;28;20029;-45
2021/07/23 10:17:05;;;;;;;8.77;5.93;;;24.80;57.30;;;;;;5071988;28;20047;-45
2021/07/23 10:19:31;;;;;;;8.75;6.13;;;24.80;57.30;;;;;;5071120;28;20039;-45
2021/07/23 10:21:58;;;;;;;7.90;6.03;;;24.80;57.90;;;;;;5072020;28;20557;-46
2021/07/23 10:24:30;;;;;;;8.90;6.78;;;24.80;57.30;;;;;;5071963;28;20021;-61
2021/07/23 10:26:57;;;;;;;9.95;6.45;;;24.80;57.30;;;;;;5072108;28;20032;-45
2021/07/23 10:29:45;;;;;;;7.00;5.63;;;24.80;57.20;;;;;;5071912;28;20028;-59
2021/07/23 10:32:35;;;;;;;7.05;5.70;;;24.80;57.30;;;;;;5071692;28;20078;-49
2021/07/23 10:35:16;;;;;;;9.18;6.22;;;24.80;57.20;;;;;;5071552;28;20110;-46
2021/07/23 10:37:50;;;;;;;9.15;6.30;;;24.80;57.20;;;;;;5071139;28;20031;-46
2021/07/23 10:40:17;;;;;;;7.65;5.47;;;24.80;57.30;;;;;;5053625;28;20432;-46
2021/07/23 10:42:46;;;;;;;8.70;5.75;;;24.90;57.40;;;;;;5071078;28;20040;-45
2021/07/23 10:45:19;;;;;;;7.38;5.38;;;24.80;57.30;;;;;;5071809;28;20025;-45
2021/07/23 10:47:49;;;;;;;9.27;6.97;;;24.80;57.30;;;;;;5070884;28;20051;-45
2021/07/23 10:50:22;;;;;;;8.48;6.03;;;24.80;57.30;;;;;;5071361;28;20466;-45
2021/07/23 10:52:48;;;;;;;7.78;6.15;;;24.90;57.30;;;;;;5070914;28;20032;-46
2021/07/23 10:55:21;;;;;;;8.10;5.95;;;24.90;57.40;;;;;;5071924;28;20489;-45
2021/07/23 10:58:09;;;;;;;8.00;5.60;;;24.90;57.40;;;;;;5070960;28;20016;-45
2021/07/23 11:00:52;;;;;;;7.03;5.75;;;24.90;57.40;;;;;;5069693;28;20080;-45
2021/07/23 11:03:43;;;;;;;7.53;5.38;;;24.90;57.40;;;;;;5071429;28;20389;-45
2021/07/23 11:06:22;;;;;;;8.38;5.72;;;24.90;57.50;;;;;;5071783;28;20048;-45
2021/07/23 11:08:51;;;;;;;8.35;5.57;;;24.90;57.50;;;;;;5070353;28;20705;-45
2021/07/23 11:11:19;;;;;;;7.13;5.60;;;24.90;57.40;;;;;;5071656;28;20037;-45
2021/07/23 11:13:46;;;;;;;7.85;5.75;;;24.90;57.40;;;;;;5070783;28;20032;-45
2021/07/23 11:16:17;;;;;;;9.02;6.07;;;24.90;57.40;;;;;;5071453;28;20024;-45
2021/07/23 11:18:59;;;;;;;6.90;5.45;;;24.90;57.40;;;;;;5070597;28;20047;-45
2021/07/23 11:21:36;;;;;;;7.57;5.78;;;24.90;57.50;;;;;;5064390;28;20055;-60
2021/07/23 11:24:09;;;;;;;7.43;5.80;;;24.90;57.40;;;;;;5071101;28;20028;-45
2021/07/23 11:26:36;;;;;;;10.35;6.53;;;24.90;57.50;;;;;;5052868;28;20041;-45
2021/07/23 11:29:02;;;;;;;6.85;5.47;;;24.90;57.40;;;;;;5071817;28;20030;-46
2021/07/23 11:31:36;;;;;;;8.57;5.93;;;24.90;57.40;;;;;;5077269;28;20036;-61
2021/07/23 11:34:27;;;;;;;7.97;6.00;;;24.90;57.40;;;;;;5077797;28;20025;-45
2021/07/23 11:36:54;;;;;;;7.50;5.85;;;24.90;57.40;;;;;;5072736;28;20077;-46
2021/07/23 11:39:21;;;;;;;8.10;5.95;;;24.90;57.40;;;;;;5077414;28;20040;-53
2021/07/23 11:42:01;;;;;;;7.68;5.97;;;24.90;57.40;;;;;;5077136;28;20600;-45
2021/07/23 11:44:27;;;;;;;7.40;6.03;;;24.90;57.30;;;;;;5075626;28;20474;-60
2021/07/23 11:46:54;;;;;;;7.38;5.45;;;25.00;57.30;;;;;;5057816;28;20146;-45
2021/07/23 11:49:20;;;;;;;9.15;6.18;;;25.00;57.30;;;;;;5057922;28;20028;-45
2021/07/23 11:51:49;;;;;;;6.60;5.00;;;25.00;57.30;;;;;;5058740;28;20036;-46
2021/07/23 11:54:18;;;;;;;7.95;5.70;;;25.00;57.30;;;;;;5077878;28;20072;-45
2021/07/23 11:56:44;;;;;;;7.25;5.47;;;25.00;57.30;;;;;;5077254;28;20028;-44
2021/07/23 11:59:10;;;;;;;7.20;5.75;;;25.00;57.30;;;;;;5077437;28;20031;-48
2021/07/23 12:01:37;;;;;;;6.97;5.55;;;25.00;57.30;;;;;;5076360;28;20048;-45
2021/07/23 12:04:04;;;;;;;6.28;5.22;;;25.00;57.30;;;;;;5077651;28;20074;-45
2021/07/23 12:06:30;;;;;;;6.97;5.45;;;25.00;57.30;;;;;;5076978;28;20370;-61
2021/07/23 12:08:58;;;;;;;7.55;5.65;;;25.00;57.20;;;;;;5077400;28;20027;-45
2021/07/23 12:11:24;;;;;;;8.57;5.97;;;25.00;57.30;;;;;;5077517;28;20050;-45
2021/07/23 12:13:50;;;;;;;8.30;6.35;;;25.00;57.20;;;;;;5076937;28;20108;-45
2021/07/23 12:16:19;;;;;;;7.40;6.03;;;25.00;57.20;;;;;;5077239;28;20085;-45
2021/07/23 12:18:59;;;;;;;8.50;6.05;;;25.00;57.20;;;;;;5076709;28;20052;-46
2021/07/23 12:21:26;;;;;;;6.50;5.38;;;25.00;57.10;;;;;;5077210;28;20477;-47
2021/07/23 12:24:04;;;;;;;7.55;5.80;;;25.10;57.10;;;;;;5072710;28;20032;-48
2021/07/23 12:26:38;;;;;;;7.45;5.93;;;25.10;57.10;;;;;;5074757;28;20432;-62
2021/07/23 12:29:06;;;;;;;10.15;6.00;;;25.10;57.10;;;;;;5075467;28;20386;-50
2021/07/23 12:31:33;;;;;;;8.23;6.15;;;25.10;57.10;;;;;;5076090;28;20036;-47
2021/07/23 12:34:04;;;;;;;6.82;5.55;;;25.10;57.00;;;;;;5076628;28;20025;-47
2021/07/23 12:36:53;;;;;;;8.30;5.85;;;25.10;57.00;;;;;;5074447;28;20497;-61
2021/07/23 12:39:24;;;;;;;7.15;5.72;;;25.10;57.00;;;;;;5076101;28;20028;-45
2021/07/23 12:41:50;;;;;;;;;;;25.10;57.00;;;;;;5074202;28;20044;-46
2021/07/23 12:44:17;;;;;;;7.00;5.30;;;25.10;57.00;;;;;;5073615;28;20250;-45
2021/07/23 12:46:46;;;;;;;7.10;5.68;;;25.10;57.00;;;;;;5070310;28;20363;-45
2021/07/23 12:49:21;;;;;;;8.55;6.15;;;25.10;57.00;;;;;;5073148;28;20459;-45